Time;durP1;ratioP1;P1;durP2;ratioP2;P2;SDS_P1;SDS_P2;PMS_P1;PMS_P2;Temp;Humidity;BMP_temperature;BMP_pressure;BME280_temperature;BME280_humidity;BME280_pressure;Samples;Min_cycle;Max_cycle;Signal;HPM_P1;HPM_P2
2021/08/13 00:01:23;;;;;;;6.88;3.95;;;13.40;95.20;;;;;;4974243;28;20027;-74
2021/08/13 00:03:50;;;;;;;3.70;3.40;;;13.50;94.90;;;;;;4973057;28;20395;-72
2021/08/13 00:06:18;;;;;;;5.28;3.38;;;13.60;94.70;;;;;;4974289;28;20023;-73
2021/08/13 00:08:45;;;;;;;4.60;3.70;;;13.70;94.70;;;;;;4973592;28;20035;-72
2021/08/13 00:11:12;;;;;;;5.35;4.38;;;13.80;94.70;;;;;;4972427;28;20151;-73
2021/08/13 00:13:40;;;;;;;6.85;3.80;;;13.90;94.70;;;;;;4972535;28;20022;-73
2021/08/13 00:16:07;;;;;;;4.20;3.72;;;14.00;94.50;;;;;;4972412;28;20431;-73
2021/08/13 00:18:34;;;;;;;7.00;3.60;;;14.00;94.10;;;;;;4973472;28;20051;-73
2021/08/13 00:21:02;;;;;;;6.32;3.35;;;14.10;93.90;;;;;;4972522;28;20027;-72
2021/08/13 00:23:29;;;;;;;4.25;3.20;;;14.20;93.30;;;;;;4972477;28;20056;-73
2021/08/13 00:25:56;;;;;;;5.32;3.40;;;14.40;93.00;;;;;;4972703;28;20023;-74
2021/08/13 00:28:24;;;;;;;4.20;3.80;;;14.50;92.70;;;;;;4972788;28;20034;-74
2021/08/13 00:30:51;;;;;;;6.03;3.78;;;14.50;93.10;;;;;;4974153;28;20102;-75
2021/08/13 00:33:18;;;;;;;7.32;3.70;;;14.70;92.80;;;;;;4972650;28;20030;-73
2021/08/13 00:35:46;;;;;;;5.88;3.00;;;14.80;92.90;;;;;;4972687;28;20027;-74
2021/08/13 00:38:13;;;;;;;7.43;3.00;;;14.80;91.90;;;;;;4973714;28;20110;-73
2021/08/13 00:40:40;;;;;;;6.88;3.40;;;15.00;92.00;;;;;;4972284;28;20050;-73
2021/08/13 00:43:08;;;;;;;5.80;2.80;;;15.00;91.40;;;;;;4972436;28;20117;-74
2021/08/13 00:45:36;;;;;;;5.53;3.10;;;15.00;91.00;;;;;;4956535;28;20125;-75
2021/08/13 00:48:03;;;;;;;5.63;3.13;;;15.00;90.90;;;;;;4972345;28;20063;-75
2021/08/13 00:50:30;;;;;;;4.30;3.22;;;15.00;91.30;;;;;;4973892;28;20093;-74
2021/08/13 00:53:00;;;;;;;3.40;3.00;;;15.10;91.50;;;;;;4972588;28;20543;-76
2021/08/13 00:55:27;;;;;;;4.15;2.70;;;15.20;91.50;;;;;;4973954;28;20022;-73
2021/08/13 00:57:55;;;;;;;5.25;3.40;;;15.20;91.20;;;;;;4972336;28;20035;-74
2021/08/13 01:00:23;;;;;;;4.15;3.20;;;15.30;91.20;;;;;;4972390;28;20054;-73
2021/08/13 01:02:50;;;;;;;6.07;3.50;;;15.40;91.20;;;;;;4972280;28;20034;-73
2021/08/13 01:05:18;;;;;;;5.47;3.00;;;15.60;90.80;;;;;;4972238;28;20479;-73
2021/08/13 01:07:45;;;;;;;6.07;3.03;;;15.60;90.80;;;;;;4972303;28;20456;-73
2021/08/13 01:10:14;;;;;;;6.35;3.20;;;15.60;90.50;;;;;;4973705;28;20033;-72
2021/08/13 01:12:56;;;;;;;4.47;2.90;;;15.70;90.20;;;;;;4973420;28;20030;-74
2021/08/13 01:15:25;;;;;;;4.47;2.95;;;15.90;90.30;;;;;;4973577;28;20043;-72
2021/08/13 01:18:42;;;;;;;5.05;2.90;;;16.00;90.10;;;;;;4972154;28;20369;-73
2021/08/13 01:21:09;;;;;;;3.85;2.67;;;16.10;90.60;;;;;;4968453;28;20428;-74
2021/08/13 01:24:04;;;;;;;5.97;2.90;;;16.40;90.30;;;;;;4973406;28;20377;-73
2021/08/13 01:26:36;;;;;;;4.20;3.10;;;16.60;90.00;;;;;;4972233;28;20031;-73
2021/08/13 01:29:38;;;;;;;3.70;2.90;;;16.60;88.60;;;;;;4973429;28;20322;-72
2021/08/13 01:32:15;;;;;;;5.80;3.05;;;16.60;88.30;;;;;;4975879;28;20038;-73
2021/08/13 01:35:00;;;;;;;3.65;2.78;;;16.70;89.00;;;;;;4976928;28;20030;-74
2021/08/13 01:37:29;;;;;;;3.58;3.10;;;16.70;88.50;;;;;;4977084;28;20019;-72
2021/08/13 01:39:59;;;;;;;3.63;2.90;;;16.80;88.50;;;;;;4976811;28;20027;-73
2021/08/13 01:42:30;;;;;;;3.03;2.50;;;16.90;88.40;;;;;;4976844;28;20026;-74
2021/08/13 01:44:57;;;;;;;;;;;17.00;87.90;;;;;;4975816;28;20037;-73
2021/08/13 01:47:26;;;;;;;5.38;3.03;;;17.10;86.90;;;;;;4976662;28;20425;-74
2021/08/13 01:49:54;;;;;;;4.80;2.78;;;17.10;86.90;;;;;;4975115;28;20031;-74
2021/08/13 01:52:22;;;;;;;5.13;3.10;;;17.30;87.10;;;;;;4976487;28;20113;-73
2021/08/13 01:54:50;;;;;;;3.70;2.60;;;17.40;87.40;;;;;;4976629;28;20026;-74
2021/08/13 01:57:18;;;;;;;4.70;2.80;;;17.70;85.90;;;;;;4976585;28;20102;-73
2021/08/13 01:59:46;;;;;;;4.68;2.47;;;17.60;86.20;;;;;;4975170;28;20479;-74
2021/08/13 02:02:14;;;;;;;4.25;2.85;;;17.70;85.90;;;;;;4976764;28;20018;-74
2021/08/13 02:04:45;;;;;;;4.10;2.70;;;17.70;86.10;;;;;;4976454;28;20054;-73
2021/08/13 02:07:16;;;;;;;4.03;3.10;;;17.90;87.10;;;;;;4975153;28;20027;-73
2021/08/13 02:09:45;;;;;;;4.55;3.03;;;17.90;86.20;;;;;;4974943;28;20026;-72
2021/08/13 02:12:14;;;;;;;4.35;2.70;;;18.10;85.20;;;;;;4976347;28;20444;-73
2021/08/13 02:14:41;;;;;;;3.75;2.63;;;18.20;86.80;;;;;;4974887;28;20101;-72
2021/08/13 02:17:14;;;;;;;5.40;3.00;;;18.30;86.20;;;;;;4974922;28;20365;-74
2021/08/13 02:20:07;;;;;;;5.78;3.72;;;18.30;88.00;;;;;;4976298;28;20038;-74
2021/08/13 02:22:35;;;;;;;2.75;2.53;;;18.40;86.50;;;;;;4965107;28;20070;-73
2021/08/13 02:25:04;;;;;;;4.13;2.58;;;18.50;85.60;;;;;;4974738;28;20035;-73
2021/08/13 02:27:36;;;;;;;3.70;2.88;;;18.60;84.80;;;;;;4975981;28;20054;-74
2021/08/13 02:30:07;;;;;;;4.93;3.15;;;18.40;85.00;;;;;;4959522;28;20027;-74
2021/08/13 02:32:35;;;;;;;3.67;2.88;;;18.50;84.90;;;;;;4974702;28;20441;-73
2021/08/13 02:35:04;;;;;;;3.90;2.60;;;18.40;85.00;;;;;;4974517;28;20042;-73
2021/08/13 02:37:37;;;;;;;3.90;2.97;;;18.50;84.00;;;;;;4975707;28;20023;-74
2021/08/13 02:40:17;;;;;;;3.28;2.58;;;18.50;84.80;;;;;;4975814;28;20092;-73
2021/08/13 02:43:32;;;;;;;4.32;2.80;;;18.40;86.00;;;;;;4974158;28;20027;-73
2021/08/13 02:46:01;;;;;;;5.50;2.35;;;18.60;85.90;;;;;;4897266;29;20549;-73
2021/08/13 02:48:30;;;;;;;4.32;2.55;;;18.90;84.60;;;;;;4897266;29;20534;-73
2021/08/13 02:50:59;;;;;;;3.75;2.42;;;19.00;86.00;;;;;;4937389;28;20045;-73
2021/08/13 02:53:28;;;;;;;2.55;2.22;;;19.00;84.40;;;;;;4974108;28;20027;-73
2021/08/13 02:56:09;;;;;;;2.67;2.40;;;19.00;84.50;;;;;;4974085;28;20027;-75
2021/08/13 02:59:01;;;;;;;5.43;2.50;;;18.90;84.10;;;;;;4975401;28;20027;-73
2021/08/13 03:01:31;;;;;;;2.55;2.10;;;19.00;86.10;;;;;;4974558;28;20122;-72
2021/08/13 03:03:59;;;;;;;4.45;2.65;;;19.20;84.90;;;;;;4976018;28;20484;-72
2021/08/13 03:06:35;;;;;;;3.08;2.10;;;19.30;85.20;;;;;;4975923;28;20031;-72
2021/08/13 03:09:04;;;;;;;3.10;2.38;;;19.30;84.10;;;;;;4975724;28;20027;-74
2021/08/13 03:11:33;;;;;;;5.68;2.55;;;19.30;84.70;;;;;;4974148;28;20026;-73
2021/08/13 03:14:03;;;;;;;4.53;2.70;;;19.20;84.10;;;;;;4973522;28;20026;-73
2021/08/13 03:16:37;;;;;;;4.07;2.65;;;19.10;84.10;;;;;;4974966;28;20031;-73
2021/08/13 03:19:06;;;;;;;2.80;2.25;;;19.20;83.70;;;;;;4975074;28;20022;-72
2021/08/13 03:21:34;;;;;;;3.45;2.38;;;19.30;84.90;;;;;;4974890;28;20081;-73
2021/08/13 03:24:01;;;;;;;2.90;2.20;;;19.40;84.90;;;;;;4974864;28;20035;-73
2021/08/13 03:26:29;;;;;;;2.90;2.50;;;19.30;84.60;;;;;;4973407;28;20035;-73
2021/08/13 03:28:57;;;;;;;2.90;2.40;;;19.30;85.60;;;;;;4974773;28;20038;-72
2021/08/13 03:31:38;;;;;;;5.32;2.72;;;19.40;84.90;;;;;;4974723;28;20025;-73
2021/08/13 03:34:08;;;;;;;2.80;2.30;;;19.60;84.90;;;;;;4973484;28;20059;-73
2021/08/13 03:36:36;;;;;;;4.82;2.33;;;19.50;85.00;;;;;;4973323;28;20065;-74
2021/08/13 03:39:05;;;;;;;4.25;2.50;;;19.70;84.80;;;;;;4973429;28;20026;-72
2021/08/13 03:41:33;;;;;;;3.30;2.45;;;19.70;85.40;;;;;;4973393;28;20027;-72
2021/08/13 03:44:00;;;;;;;4.45;2.40;;;19.60;84.60;;;;;;4973130;28;20038;-71
2021/08/13 03:46:28;;;;;;;2.40;2.20;;;19.60;84.60;;;;;;4974592;28;20027;-73
2021/08/13 03:48:56;;;;;;;2.80;2.28;;;19.70;84.40;;;;;;4974281;28;20403;-72
2021/08/13 03:51:23;;;;;;;4.68;2.70;;;19.70;84.90;;;;;;4974441;28;20023;-73
2021/08/13 03:53:50;;;;;;;4.15;2.60;;;19.80;84.90;;;;;;4974078;28;20391;-71
2021/08/13 03:56:18;;;;;;;3.03;2.30;;;19.80;84.10;;;;;;4974346;28;20383;-72
2021/08/13 03:58:45;;;;;;;2.75;2.55;;;19.90;85.20;;;;;;4972878;28;20031;-72
2021/08/13 04:01:12;;;;;;;2.60;2.40;;;20.00;84.30;;;;;;4972947;28;20033;-72
2021/08/13 04:03:40;;;;;;;3.20;2.85;;;20.10;83.80;;;;;;4972864;28;20420;-74
2021/08/13 04:06:07;;;;;;;4.78;2.70;;;20.10;82.00;;;;;;4972828;28;20405;-72
2021/08/13 04:08:34;;;;;;;3.92;2.60;;;20.10;82.00;;;;;;4972660;28;20031;-72
2021/08/13 04:11:02;;;;;;;3.70;2.70;;;20.20;83.40;;;;;;4974119;28;20476;-71
2021/08/13 04:13:29;;;;;;;3.42;2.80;;;20.30;82.90;;;;;;4973850;28;20439;-71
2021/08/13 04:15:56;;;;;;;3.60;2.80;;;20.30;82.40;;;;;;4973590;28;20070;-71
2021/08/13 04:18:24;;;;;;;3.17;2.83;;;20.20;81.70;;;;;;4974370;28;20102;-72
2021/08/13 04:20:51;;;;;;;4.18;2.70;;;20.20;81.80;;;;;;4974674;28;20049;-72
2021/08/13 04:23:18;;;;;;;2.67;2.47;;;20.20;81.70;;;;;;4974246;28;20027;-71
2021/08/13 04:25:46;;;;;;;2.38;2.17;;;20.10;81.60;;;;;;4974424;28;20019;-72
2021/08/13 04:28:13;;;;;;;2.70;2.50;;;20.20;82.20;;;;;;4974268;28;20026;-72
2021/08/13 04:30:40;;;;;;;4.03;2.80;;;20.10;82.90;;;;;;4974495;28;20047;-72
2021/08/13 04:33:10;;;;;;;3.20;2.65;;;20.00;81.10;;;;;;4974104;28;20095;-72
2021/08/13 04:35:37;;;;;;;2.95;2.63;;;20.00;81.80;;;;;;4973873;28;20102;-72
2021/08/13 04:38:05;;;;;;;5.93;2.90;;;19.90;82.40;;;;;;4974070;28;20392;-72
2021/08/13 04:40:34;;;;;;;4.22;3.35;;;19.80;80.50;;;;;;4972521;28;20023;-72
2021/08/13 04:43:02;;;;;;;3.25;2.90;;;19.70;81.30;;;;;;4974203;28;20053;-71
2021/08/13 04:45:29;;;;;;;5.05;3.67;;;19.70;81.20;;;;;;4974098;28;20103;-71
2021/08/13 04:47:57;;;;;;;4.38;3.38;;;19.60;80.60;;;;;;4973664;28;20471;-71
2021/08/13 04:50:25;;;;;;;3.78;3.00;;;19.50;80.00;;;;;;4973861;28;20057;-70
2021/08/13 04:52:53;;;;;;;3.10;2.80;;;19.50;80.00;;;;;;4972498;28;20480;-71
2021/08/13 04:55:25;;;;;;;4.55;2.95;;;19.50;79.70;;;;;;4972695;28;20080;-72
2021/08/13 04:57:54;;;;;;;4.43;3.30;;;19.50;80.60;;;;;;4972490;28;20424;-71
2021/08/13 05:00:22;;;;;;;5.07;3.28;;;19.50;82.40;;;;;;4974212;28;20027;-73
2021/08/13 05:02:50;;;;;;;3.40;2.80;;;19.50;80.70;;;;;;4974156;28;20023;-72
2021/08/13 05:05:18;;;;;;;3.40;3.10;;;19.40;79.40;;;;;;4974136;28;20547;-72
2021/08/13 05:07:46;;;;;;;3.95;3.10;;;19.40;80.20;;;;;;4977907;28;20022;-72
2021/08/13 05:10:16;;;;;;;5.68;3.10;;;19.30;80.70;;;;;;4977565;28;20030;-71
2021/08/13 05:12:45;;;;;;;3.25;2.70;;;19.20;81.10;;;;;;4976387;28;20023;-71
2021/08/13 05:15:13;;;;;;;2.72;2.50;;;19.20;81.40;;;;;;4977384;28;20109;-71
2021/08/13 05:17:40;;;;;;;3.83;2.60;;;19.10;80.30;;;;;;4977708;28;20019;-72
2021/08/13 05:20:09;;;;;;;5.40;2.65;;;19.00;80.30;;;;;;4976332;28;20031;-72
2021/08/13 05:22:36;;;;;;;4.43;3.17;;;19.00;81.00;;;;;;4976143;28;20437;-72
2021/08/13 05:25:11;;;;;;;3.50;2.60;;;18.90;81.00;;;;;;4977440;28;20027;-72
2021/08/13 05:27:40;;;;;;;4.78;2.58;;;18.90;79.60;;;;;;4977462;28;20030;-72
2021/08/13 05:30:09;;;;;;;4.00;2.60;;;19.00;80.80;;;;;;4975935;28;20026;-72
2021/08/13 05:32:44;;;;;;;5.28;3.20;;;19.00;79.70;;;;;;4977528;28;20046;-71
2021/08/13 05:35:12;;;;;;;3.70;3.25;;;18.90;87.30;;;;;;4975959;28;20518;-72
2021/08/13 05:37:40;;;;;;;4.60;3.40;;;18.70;90.00;;;;;;4977232;28;20038;-72
2021/08/13 05:40:09;;;;;;;4.10;3.47;;;18.60;90.50;;;;;;4977003;28;20030;-71
2021/08/13 05:42:37;;;;;;;6.38;3.90;;;18.40;90.90;;;;;;4977113;28;20030;-71
2021/08/13 05:45:06;;;;;;;4.88;3.35;;;18.30;91.50;;;;;;4975751;28;20484;-71
2021/08/13 05:47:34;;;;;;;3.78;3.47;;;18.10;91.90;;;;;;4975807;28;20456;-71
2021/08/13 05:50:01;;;;;;;5.15;3.85;;;18.00;92.30;;;;;;4975736;28;20027;-71
2021/08/13 05:52:28;;;;;;;4.50;3.75;;;17.90;92.60;;;;;;4976997;28;20030;-71
2021/08/13 05:54:56;;;;;;;5.55;3.50;;;17.70;93.00;;;;;;4976842;28;20086;-71
2021/08/13 05:57:23;;;;;;;6.95;4.18;;;17.70;93.30;;;;;;4975401;28;20027;-72
2021/08/13 05:59:50;;;;;;;6.47;4.05;;;17.60;93.40;;;;;;4975584;28;20031;-72
2021/08/13 06:02:18;;;;;;;4.35;3.95;;;17.60;93.70;;;;;;4976919;28;20035;-72
2021/08/13 06:04:46;;;;;;;4.40;3.92;;;17.40;93.90;;;;;;4976768;28;20471;-72
2021/08/13 06:07:13;;;;;;;6.00;4.00;;;17.40;94.20;;;;;;4976540;28;20031;-72
2021/08/13 06:09:40;;;;;;;5.93;3.72;;;17.30;94.40;;;;;;4975507;28;20460;-71
2021/08/13 06:12:08;;;;;;;8.18;4.82;;;17.30;94.40;;;;;;4975213;28;20357;-71
2021/08/13 06:14:35;;;;;;;4.25;3.50;;;17.30;94.80;;;;;;4976243;28;20109;-70
2021/08/13 06:17:03;;;;;;;6.18;3.53;;;17.20;95.00;;;;;;4976005;28;20073;-71
2021/08/13 06:19:31;;;;;;;4.68;3.70;;;17.10;95.30;;;;;;4974711;28;20027;-70
2021/08/13 06:21:58;;;;;;;3.70;3.33;;;17.10;95.70;;;;;;4975001;28;20117;-71
2021/08/13 06:24:27;;;;;;;3.40;3.17;;;16.90;96.00;;;;;;4976347;28;20057;-71
2021/08/13 06:26:55;;;;;;;4.22;3.38;;;16.90;96.40;;;;;;4976525;28;20443;-71
2021/08/13 06:29:22;;;;;;;3.60;3.30;;;16.70;96.60;;;;;;4976411;28;20206;-71
2021/08/13 06:31:50;;;;;;;4.03;3.55;;;16.60;97.10;;;;;;4976266;28;20160;-71
2021/08/13 06:34:18;;;;;;;3.70;3.40;;;16.50;97.70;;;;;;4974787;28;20468;-70
2021/08/13 06:36:48;;;;;;;4.95;3.30;;;16.50;98.10;;;;;;4976060;28;20464;-70
2021/08/13 06:39:15;;;;;;;5.18;3.60;;;16.40;98.20;;;;;;4976111;28;20026;-70
2021/08/13 06:41:43;;;;;;;4.50;4.13;;;16.20;98.80;;;;;;4974984;28;20062;-70
2021/08/13 06:44:10;;;;;;;5.35;3.33;;;16.20;99.10;;;;;;4976188;28;20416;-70
2021/08/13 06:46:38;;;;;;;6.57;3.50;;;16.10;99.30;;;;;;4974409;28;20023;-70
2021/08/13 06:49:05;;;;;;;5.13;4.20;;;16.00;99.60;;;;;;4975758;28;20069;-70
2021/08/13 06:51:32;;;;;;;3.78;3.47;;;15.90;99.90;;;;;;4974537;28;20029;-71
2021/08/13 06:54:00;;;;;;;4.40;3.28;;;15.90;99.90;;;;;;4975867;28;20047;-69
2021/08/13 06:56:27;;;;;;;4.25;2.95;;;15.80;99.90;;;;;;4975818;28;20014;-70
2021/08/13 06:58:57;;;;;;;4.30;3.58;;;15.70;99.90;;;;;;4981030;28;20030;-70
2021/08/13 07:01:25;;;;;;;4.22;3.60;;;15.60;99.90;;;;;;4980975;28;20126;-70
2021/08/13 07:03:52;;;;;;;5.35;3.65;;;15.50;99.90;;;;;;4979643;28;20031;-70
2021/08/13 07:06:19;;;;;;;6.65;4.07;;;15.30;99.90;;;;;;4978307;28;20026;-69
2021/08/13 07:08:47;;;;;;;3.60;3.30;;;15.30;99.90;;;;;;4979460;28;20022;-70
2021/08/13 07:11:15;;;;;;;5.07;3.30;;;15.20;99.90;;;;;;4976448;28;20349;-68
2021/08/13 07:13:42;;;;;;;3.72;3.40;;;15.10;99.90;;;;;;4980552;28;20018;-70
2021/08/13 07:16:10;;;;;;;3.75;3.40;;;15.00;99.90;;;;;;4978737;28;20119;-70
2021/08/13 07:18:38;;;;;;;3.67;3.38;;;14.90;99.90;;;;;;4978054;28;20022;-70
2021/08/13 07:21:05;;;;;;;3.95;3.45;;;14.80;99.90;;;;;;4977017;28;20027;-69
2021/08/13 07:23:33;;;;;;;4.57;3.50;;;14.70;99.90;;;;;;4976775;28;20018;-69
2021/08/13 07:26:01;;;;;;;3.88;3.50;;;14.60;99.90;;;;;;4978563;28;20114;-70
2021/08/13 07:28:28;;;;;;;4.93;3.58;;;14.60;99.90;;;;;;4975601;28;20049;-69
2021/08/13 07:30:55;;;;;;;3.92;3.60;;;14.50;99.90;;;;;;4975962;28;20094;-70
2021/08/13 07:33:23;;;;;;;7.53;4.40;;;14.40;99.90;;;;;;4980542;28;20030;-72
2021/08/13 07:35:50;;;;;;;5.57;4.20;;;14.30;99.90;;;;;;4976564;28;20022;-70
2021/08/13 07:38:17;;;;;;;4.57;3.80;;;14.30;99.90;;;;;;4977821;28;20049;-68
2021/08/13 07:40:45;;;;;;;5.20;4.18;;;14.20;99.90;;;;;;4976644;28;20080;-70
2021/08/13 07:43:12;;;;;;;8.18;4.63;;;14.10;99.90;;;;;;4975302;28;20018;-69
2021/08/13 07:45:40;;;;;;;4.40;4.00;;;14.00;99.90;;;;;;4975931;28;20027;-69
2021/08/13 07:48:08;;;;;;;5.80;4.38;;;13.90;99.90;;;;;;4977421;28;20376;-70
2021/08/13 07:50:36;;;;;;;4.88;4.28;;;13.90;99.90;;;;;;4976996;28;20081;-69
2021/08/13 07:53:03;;;;;;;5.35;3.83;;;13.90;99.90;;;;;;4976133;28;20101;-70
2021/08/13 07:55:31;;;;;;;5.22;4.07;;;13.80;99.90;;;;;;4980578;28;20029;-69
2021/08/13 07:57:58;;;;;;;4.80;4.40;;;13.70;99.90;;;;;;4980308;28;20472;-70
2021/08/13 08:00:26;;;;;;;4.38;3.97;;;13.70;99.90;;;;;;4977608;28;20038;-69
2021/08/13 08:02:53;;;;;;;4.80;4.22;;;13.60;99.90;;;;;;4976891;28;20102;-70
2021/08/13 08:05:20;;;;;;;6.57;4.88;;;13.60;99.90;;;;;;4976674;28;20031;-70
2021/08/13 08:07:48;;;;;;;5.40;4.90;;;13.50;99.90;;;;;;4975633;28;20037;-69
2021/08/13 08:10:16;;;;;;;6.78;5.68;;;13.50;99.90;;;;;;4977365;28;20096;-69
2021/08/13 08:12:43;;;;;;;23.48;16.88;;;13.50;99.90;;;;;;4977510;28;20023;-70
2021/08/13 08:15:11;;;;;;;26.65;16.15;;;13.40;99.90;;;;;;4976639;28;20499;-70
2021/08/13 08:17:39;;;;;;;19.60;14.68;;;13.40;99.90;;;;;;4975550;28;20031;-71
2021/08/13 08:20:07;;;;;;;13.85;10.82;;;13.30;99.90;;;;;;4982229;28;20071;-70
2021/08/13 08:22:36;;;;;;;11.07;9.77;;;13.30;99.90;;;;;;4979883;28;20031;-70
2021/08/13 08:25:06;;;;;;;16.88;10.45;;;13.20;99.90;;;;;;4977940;28;20030;-70
2021/08/13 08:27:34;;;;;;;13.68;10.15;;;13.10;99.90;;;;;;4982850;28;20033;-70
2021/08/13 08:30:01;;;;;;;10.80;9.10;;;13.10;99.90;;;;;;4976796;28;20031;-69
2021/08/13 08:32:29;;;;;;;14.82;10.85;;;13.10;99.90;;;;;;4978395;28;20027;-70
2021/08/13 08:34:56;;;;;;;8.57;7.78;;;13.10;99.90;;;;;;4976050;28;20485;-70
2021/08/13 08:37:23;;;;;;;11.15;8.23;;;13.00;99.90;;;;;;4972487;28;20059;-69
2021/08/13 08:39:51;;;;;;;9.88;8.23;;;13.00;99.90;;;;;;4974683;28;20026;-70
2021/08/13 08:42:21;;;;;;;8.95;8.00;;;12.90;99.90;;;;;;4976500;28;20080;-70
2021/08/13 08:44:50;;;;;;;12.87;9.80;;;12.90;99.90;;;;;;4977773;28;20030;-70
2021/08/13 08:47:20;;;;;;;12.88;10.70;;;12.90;99.90;;;;;;4976523;28;20260;-70
2021/08/13 08:49:51;;;;;;;15.18;11.73;;;12.90;99.90;;;;;;4977838;28;20420;-70
2021/08/13 08:52:19;;;;;;;13.82;11.80;;;12.90;99.90;;;;;;4976197;28;20026;-70
2021/08/13 08:54:46;;;;;;;18.20;12.77;;;12.90;99.90;;;;;;4977573;28;20047;-70
2021/08/13 08:57:15;;;;;;;15.68;13.65;;;12.80;99.90;;;;;;4977768;28;20015;-70
2021/08/13 08:59:43;;;;;;;16.25;14.60;;;12.80;99.90;;;;;;4977658;28;20031;-70
2021/08/13 09:02:11;;;;;;;16.30;14.65;;;12.70;99.90;;;;;;4977459;28;20027;-71
2021/08/13 09:04:39;;;;;;;16.83;14.40;;;12.70;99.90;;;;;;4977406;28;20082;-70
2021/08/13 09:07:07;;;;;;;15.88;13.95;;;12.70;99.90;;;;;;4977377;28;20022;-70
2021/08/13 09:09:34;;;;;;;18.20;14.63;;;12.70;99.90;;;;;;4976020;28;20062;-69
2021/08/13 09:12:03;;;;;;;16.85;14.88;;;12.70;99.90;;;;;;4977160;28;20109;-70
2021/08/13 09:14:41;;;;;;;15.77;14.00;;;12.60;99.90;;;;;;4976052;28;20142;-70
2021/08/13 09:17:09;;;;;;;15.55;13.90;;;12.50;99.90;;;;;;4977127;28;20030;-70
2021/08/13 09:19:48;;;;;;;16.50;14.80;;;12.50;99.90;;;;;;4977293;28;20575;-70
2021/08/13 09:22:18;;;;;;;17.35;14.98;;;12.50;99.90;;;;;;4976014;28;20502;-69
2021/08/13 09:24:50;;;;;;;16.42;14.00;;;12.40;99.90;;;;;;4977178;28;20030;-70
2021/08/13 09:27:29;;;;;;;17.90;16.05;;;12.40;99.90;;;;;;4975750;28;20062;-70
2021/08/13 09:30:09;;;;;;;17.48;15.70;;;12.40;99.90;;;;;;4976729;28;20069;-70
2021/08/13 09:32:38;;;;;;;19.02;17.10;;;12.40;99.90;;;;;;4975400;28;20023;-70
2021/08/13 09:35:06;;;;;;;24.50;21.83;;;12.40;99.90;;;;;;4975407;28;20154;-70
2021/08/13 09:37:49;;;;;;;30.67;23.23;;;12.40;99.90;;;;;;4976826;28;20019;-69
2021/08/13 09:40:16;;;;;;;32.08;28.60;;;12.40;99.90;;;;;;4976794;28;20022;-70
2021/08/13 09:42:44;;;;;;;38.70;32.33;;;12.40;99.90;;;;;;4976700;28;20057;-69
2021/08/13 09:45:11;;;;;;;35.42;28.27;;;12.40;99.90;;;;;;4976525;28;20027;-70
2021/08/13 09:47:44;;;;;;;34.97;29.60;;;12.40;99.90;;;;;;4976694;28;20181;-68
2021/08/13 09:50:21;;;;;;;33.00;29.50;;;12.40;99.90;;;;;;4976399;28;20383;-70
2021/08/13 09:53:06;;;;;;;36.22;32.45;;;12.40;99.90;;;;;;4975456;28;20022;-68
2021/08/13 09:55:35;;;;;;;36.92;31.45;;;12.40;99.90;;;;;;4975245;28;20023;-70
2021/08/13 09:58:03;;;;;;;36.20;32.38;;;12.40;99.90;;;;;;4974739;28;20121;-69
2021/08/13 10:00:30;;;;;;;39.72;34.30;;;12.40;99.90;;;;;;4974804;28;20031;-70
2021/08/13 10:03:05;;;;;;;38.10;34.05;;;12.30;99.90;;;;;;4975993;28;20102;-69
2021/08/13 10:05:32;;;;;;;40.97;33.28;;;12.30;99.90;;;;;;4976026;28;20083;-69
2021/08/13 10:08:02;;;;;;;34.35;30.75;;;12.30;99.90;;;;;;4976038;28;20035;-69
2021/08/13 10:10:37;;;;;;;38.10;34.17;;;12.30;99.90;;;;;;4975889;28;20031;-69
2021/08/13 10:13:07;;;;;;;39.17;35.20;;;12.30;99.90;;;;;;4974510;28;20030;-69
2021/08/13 10:15:36;;;;;;;39.10;35.10;;;12.20;99.90;;;;;;4975692;28;20073;-70
2021/08/13 10:18:09;;;;;;;40.53;35.30;;;12.20;99.90;;;;;;4976196;28;20053;-70
2021/08/13 10:20:48;;;;;;;40.08;35.88;;;12.20;99.90;;;;;;4975822;28;20388;-69
2021/08/13 10:23:16;;;;;;;40.40;36.30;;;12.20;99.90;;;;;;4975814;28;20033;-70
2021/08/13 10:25:43;;;;;;;43.63;39.20;;;12.20;99.90;;;;;;4974561;28;20023;-71
2021/08/13 10:28:11;;;;;;;55.22;47.47;;;12.30;99.90;;;;;;4975619;28;20023;-70
2021/08/13 10:30:38;;;;;;;46.78;41.63;;;12.30;99.90;;;;;;4975665;28;20031;-70
2021/08/13 10:33:07;;;;;;;43.35;38.72;;;12.30;99.90;;;;;;4975500;28;20369;-70
2021/08/13 10:35:49;;;;;;;50.15;44.72;;;12.30;99.90;;;;;;4974196;28;20050;-70
2021/08/13 10:38:19;;;;;;;55.72;49.15;;;12.20;99.90;;;;;;4975618;28;20034;-70
2021/08/13 10:40:47;;;;;;;67.95;60.70;;;12.20;99.90;;;;;;4975596;28;20026;-70
2021/08/13 10:43:17;;;;;;;73.47;65.72;;;12.20;99.90;;;;;;4975536;28;20392;-70
2021/08/13 10:45:47;;;;;;;77.32;68.85;;;12.20;99.90;;;;;;4975740;28;20027;-70
2021/08/13 10:48:28;;;;;;;72.03;63.97;;;12.30;99.90;;;;;;4975598;28;20030;-70
2021/08/13 10:50:59;;;;;;;54.72;48.65;;;12.30;99.90;;;;;;4974158;28;20129;-69
2021/08/13 10:53:37;;;;;;;48.35;43.45;;;12.40;99.90;;;;;;4975543;28;20491;-70
2021/08/13 10:56:08;;;;;;;46.17;41.03;;;12.40;99.90;;;;;;4975515;28;20162;-71
2021/08/13 10:58:40;;;;;;;;;;;12.40;99.90;;;;;;4975744;28;20034;-70
2021/08/13 11:01:16;;;;;;;34.88;30.60;;;12.30;99.90;;;;;;4974018;28;19906;-70
2021/08/13 11:03:53;;;;;;;31.17;26.00;;;12.30;99.90;;;;;;4973880;28;20027;-70
2021/08/13 11:06:43;;;;;;;26.73;24.05;;;12.20;99.90;;;;;;4975270;28;20490;-70
2021/08/13 11:09:32;;;;;;;28.05;25.05;;;12.20;99.90;;;;;;4963745;28;20070;-69
2021/08/13 11:12:00;;;;;;;25.10;22.52;;;12.20;99.90;;;;;;4974939;28;20035;-69
2021/08/13 11:14:52;;;;;;;24.00;21.50;;;12.10;99.90;;;;;;4973669;28;20047;-69
2021/08/13 11:17:42;;;;;;;20.98;18.92;;;12.00;99.90;;;;;;4973685;28;20030;-69
2021/08/13 11:20:12;;;;;;;19.77;16.60;;;12.00;99.90;;;;;;4975242;28;20027;-69
2021/08/13 11:22:40;;;;;;;17.08;15.27;;;12.10;99.90;;;;;;4974878;28;20491;-69
2021/08/13 11:25:10;;;;;;;20.48;15.60;;;12.10;99.90;;;;;;4974903;28;20033;-70
2021/08/13 11:27:38;;;;;;;15.77;14.25;;;12.00;99.90;;;;;;4974754;28;20105;-69
2021/08/13 11:30:26;;;;;;;15.93;13.07;;;12.00;99.90;;;;;;4973267;28;20061;-69
2021/08/13 11:32:54;;;;;;;15.05;13.50;;;11.90;99.90;;;;;;4972823;28;20030;-70
2021/08/13 11:35:39;;;;;;;15.80;13.30;;;11.90;99.90;;;;;;4974669;28;20030;-68
2021/08/13 11:38:07;;;;;;;13.27;12.02;;;11.80;99.90;;;;;;4973340;28;20582;-69
2021/08/13 11:40:34;;;;;;;15.18;13.65;;;11.80;99.90;;;;;;4974567;28;20081;-69
2021/08/13 11:43:02;;;;;;;14.52;12.93;;;11.70;99.90;;;;;;4974505;28;20066;-69
2021/08/13 11:45:44;;;;;;;14.35;12.88;;;11.60;99.90;;;;;;4973192;28;20491;-70
2021/08/13 11:48:13;;;;;;;15.18;11.98;;;11.50;99.90;;;;;;4974622;28;20097;-69
2021/08/13 11:50:41;;;;;;;15.25;12.25;;;11.50;99.90;;;;;;4974310;28;20023;-69
2021/08/13 11:53:08;;;;;;;14.35;12.77;;;11.50;99.90;;;;;;4974387;28;20479;-69
2021/08/13 11:55:36;;;;;;;13.18;11.88;;;11.50;99.90;;;;;;4973000;28;20054;-69
2021/08/13 11:58:06;;;;;;;11.23;10.05;;;11.40;99.90;;;;;;4974419;28;20034;-68
2021/08/13 12:00:38;;;;;;;12.27;11.20;;;11.40;99.90;;;;;;4974384;28;20101;-69
2021/08/13 12:03:10;;;;;;;12.00;10.85;;;11.40;99.90;;;;;;4973992;28;20030;-70
2021/08/13 12:05:39;;;;;;;11.07;10.00;;;11.30;99.90;;;;;;4974263;28;20073;-69
2021/08/13 12:08:12;;;;;;;9.60;8.70;;;11.30;99.90;;;;;;4972866;28;20023;-69
2021/08/13 12:10:46;;;;;;;10.50;9.23;;;11.20;99.90;;;;;;4972785;28;20131;-69
2021/08/13 12:13:13;;;;;;;10.35;9.45;;;11.20;99.90;;;;;;4974196;28;20408;-69
2021/08/13 12:15:42;;;;;;;9.07;7.80;;;11.20;99.90;;;;;;4973425;28;20047;-69
2021/08/13 12:18:11;;;;;;;9.15;8.35;;;11.20;99.90;;;;;;4973987;28;20094;-70
2021/08/13 12:20:45;;;;;;;9.52;8.63;;;11.20;99.90;;;;;;4974017;28;20536;-69
2021/08/13 12:23:12;;;;;;;9.02;8.23;;;11.20;99.90;;;;;;4972526;28;20033;-70
2021/08/13 12:25:42;;;;;;;8.93;8.10;;;11.20;99.90;;;;;;4974283;28;20030;-70
2021/08/13 12:28:11;;;;;;;9.35;8.60;;;11.10;99.90;;;;;;4972865;28;20562;-69
2021/08/13 12:30:42;;;;;;;9.70;8.82;;;11.10;99.90;;;;;;4973906;28;20507;-69
2021/08/13 12:33:18;;;;;;;9.65;8.85;;;11.10;99.90;;;;;;4973873;28;20101;-69
2021/08/13 12:35:47;;;;;;;10.07;7.57;;;11.00;99.90;;;;;;4973933;28;20023;-69
2021/08/13 12:38:16;;;;;;;9.52;7.45;;;11.00;99.90;;;;;;4973847;28;20120;-69
2021/08/13 12:40:49;;;;;;;7.63;6.72;;;11.00;99.90;;;;;;4973807;28;20030;-69
2021/08/13 12:43:19;;;;;;;7.13;6.43;;;11.00;99.90;;;;;;4973725;28;20027;-69
2021/08/13 12:45:47;;;;;;;7.80;6.27;;;11.00;99.90;;;;;;4973720;28;20030;-69
2021/08/13 12:48:17;;;;;;;8.73;6.82;;;11.00;99.90;;;;;;4973816;28;20027;-69
2021/08/13 12:50:45;;;;;;;;;;;10.90;99.90;;;;;;4973988;28;20030;-69
2021/08/13 12:53:14;;;;;;;6.53;5.93;;;10.90;99.90;;;;;;4972208;28;20072;-69
2021/08/13 12:55:44;;;;;;;6.75;6.05;;;10.90;99.90;;;;;;4972137;28;20033;-69
2021/08/13 12:58:36;;;;;;;8.15;6.20;;;10.90;99.90;;;;;;4973507;28;20029;-70